sensor_id;sensor_type;location;lat;lon;timestamp;P1;durP1;ratioP1;P2;durP2;ratioP2
31308;SDS011;17936;52.446;10.840;2023-04-07T00:01:06;20.15;;;10.13;;
31308;SDS011;17936;52.446;10.840;2023-04-07T00:03:32;18.50;;;10.05;;
31308;SDS011;17936;52.446;10.840;2023-04-07T00:05:57;16.75;;;10.18;;
31308;SDS011;17936;52.446;10.840;2023-04-07T00:08:23;17.40;;;10.10;;
31308;SDS011;17936;52.446;10.840;2023-04-07T00:10:48;19.20;;;10.50;;
31308;SDS011;17936;52.446;10.840;2023-04-07T00:13:14;15.38;;;9.52;;
31308;SDS011;17936;52.446;10.840;2023-04-07T00:15:40;11.55;;;8.10;;
31308;SDS011;17936;52.446;10.840;2023-04-07T00:18:05;14.63;;;8.68;;
31308;SDS011;17936;52.446;10.840;2023-04-07T00:20:31;18.33;;;10.10;;
31308;SDS011;17936;52.446;10.840;2023-04-07T00:22:56;15.15;;;8.57;;
31308;SDS011;17936;52.446;10.840;2023-04-07T00:25:22;20.23;;;9.68;;
31308;SDS011;17936;52.446;10.840;2023-04-07T00:27:47;17.63;;;10.25;;
31308;SDS011;17936;52.446;10.840;2023-04-07T00:30:13;12.60;;;8.00;;
31308;SDS011;17936;52.446;10.840;2023-04-07T00:32:39;13.30;;;8.70;;
31308;SDS011;17936;52.446;10.840;2023-04-07T00:35:05;15.40;;;9.10;;
31308;SDS011;17936;52.446;10.840;2023-04-07T00:37:30;15.50;;;9.48;;
31308;SDS011;17936;52.446;10.840;2023-04-07T00:39:56;14.70;;;9.27;;
31308;SDS011;17936;52.446;10.840;2023-04-07T00:42:23;15.93;;;9.98;;
31308;SDS011;17936;52.446;10.840;2023-04-07T00:44:48;15.82;;;9.63;;
31308;SDS011;17936;52.446;10.840;2023-04-07T00:47:14;16.48;;;9.50;;
31308;SDS011;17936;52.446;10.840;2023-04-07T00:49:40;14.73;;;9.73;;
31308;SDS011;17936;52.446;10.840;2023-04-07T00:52:05;16.40;;;9.45;;
31308;SDS011;17936;52.446;10.840;2023-04-07T00:54:35;17.75;;;9.23;;
31308;SDS011;17936;52.446;10.840;2023-04-07T00:57:01;19.25;;;9.85;;
31308;SDS011;17936;52.446;10.840;2023-04-07T00:59:27;19.55;;;9.50;;
31308;SDS011;17936;52.446;10.840;2023-04-07T01:02:01;19.75;;;10.75;;
31308;SDS011;17936;52.446;10.840;2023-04-07T01:04:46;17.10;;;10.63;;
31308;SDS011;17936;52.446;10.840;2023-04-07T01:07:21;17.45;;;10.98;;
31308;SDS011;17936;52.446;10.840;2023-04-07T01:09:56;22.80;;;11.27;;
31308;SDS011;17936;52.446;10.840;2023-04-07T01:15:08;19.83;;;10.63;;
31308;SDS011;17936;52.446;10.840;2023-04-07T01:17:36;21.75;;;10.07;;
31308;SDS011;17936;52.446;10.840;2023-04-07T01:20:06;22.00;;;11.38;;
31308;SDS011;17936;52.446;10.840;2023-04-07T01:22:40;22.92;;;11.10;;
31308;SDS011;17936;52.446;10.840;2023-04-07T01:25:32;17.13;;;9.90;;
31308;SDS011;17936;52.446;10.840;2023-04-07T01:31:07;26.83;;;11.75;;
31308;SDS011;17936;52.446;10.840;2023-04-07T01:33:34;21.60;;;11.52;;
31308;SDS011;17936;52.446;10.840;2023-04-07T01:36:01;22.52;;;11.75;;
31308;SDS011;17936;52.446;10.840;2023-04-07T01:38:28;20.98;;;10.73;;
31308;SDS011;17936;52.446;10.840;2023-04-07T01:40:55;20.73;;;11.40;;
31308;SDS011;17936;52.446;10.840;2023-04-07T01:43:23;19.65;;;11.52;;
31308;SDS011;17936;52.446;10.840;2023-04-07T01:45:49;20.02;;;12.30;;
31308;SDS011;17936;52.446;10.840;2023-04-07T01:48:16;19.58;;;11.10;;
31308;SDS011;17936;52.446;10.840;2023-04-07T01:50:42;20.55;;;11.52;;
31308;SDS011;17936;52.446;10.840;2023-04-07T01:53:09;21.80;;;10.63;;
31308;SDS011;17936;52.446;10.840;2023-04-07T01:55:35;21.27;;;11.95;;
31308;SDS011;17936;52.446;10.840;2023-04-07T01:58:05;17.90;;;10.93;;
31308;SDS011;17936;52.446;10.840;2023-04-07T02:00:31;20.15;;;10.93;;
31308;SDS011;17936;52.446;10.840;2023-04-07T02:02:58;19.77;;;11.57;;
31308;SDS011;17936;52.446;10.840;2023-04-07T02:05:31;22.48;;;11.55;;
31308;SDS011;17936;52.446;10.840;2023-04-07T02:08:03;20.77;;;11.10;;
31308;SDS011;17936;52.446;10.840;2023-04-07T02:10:32;21.63;;;11.05;;
31308;SDS011;17936;52.446;10.840;2023-04-07T02:13:02;23.83;;;11.77;;
31308;SDS011;17936;52.446;10.840;2023-04-07T02:15:29;23.08;;;12.73;;
31308;SDS011;17936;52.446;10.840;2023-04-07T02:17:58;21.13;;;11.85;;
31308;SDS011;17936;52.446;10.840;2023-04-07T02:20:25;18.77;;;10.50;;
31308;SDS011;17936;52.446;10.840;2023-04-07T02:22:52;20.58;;;11.77;;
31308;SDS011;17936;52.446;10.840;2023-04-07T02:25:24;27.80;;;11.13;;
31308;SDS011;17936;52.446;10.840;2023-04-07T02:27:54;20.63;;;11.70;;
31308;SDS011;17936;52.446;10.840;2023-04-07T02:30:21;17.13;;;10.52;;
31308;SDS011;17936;52.446;10.840;2023-04-07T02:32:47;20.17;;;11.15;;
31308;SDS011;17936;52.446;10.840;2023-04-07T02:35:13;21.65;;;11.45;;
31308;SDS011;17936;52.446;10.840;2023-04-07T02:37:40;22.73;;;12.43;;
31308;SDS011;17936;52.446;10.840;2023-04-07T02:40:05;22.13;;;10.65;;
31308;SDS011;17936;52.446;10.840;2023-04-07T02:42:31;19.30;;;11.70;;
31308;SDS011;17936;52.446;10.840;2023-04-07T02:44:57;21.42;;;11.77;;
31308;SDS011;17936;52.446;10.840;2023-04-07T02:47:23;21.10;;;11.50;;
31308;SDS011;17936;52.446;10.840;2023-04-07T02:49:50;16.75;;;10.50;;
31308;SDS011;17936;52.446;10.840;2023-04-07T02:52:16;20.10;;;11.55;;
31308;SDS011;17936;52.446;10.840;2023-04-07T02:54:41;24.00;;;11.63;;
31308;SDS011;17936;52.446;10.840;2023-04-07T02:57:07;20.10;;;11.23;;
31308;SDS011;17936;52.446;10.840;2023-04-07T02:59:33;21.17;;;10.40;;
31308;SDS011;17936;52.446;10.840;2023-04-07T03:01:59;20.77;;;11.27;;
31308;SDS011;17936;52.446;10.840;2023-04-07T03:04:24;20.20;;;10.85;;
31308;SDS011;17936;52.446;10.840;2023-04-07T03:06:50;17.80;;;10.23;;
31308;SDS011;17936;52.446;10.840;2023-04-07T03:09:15;17.92;;;10.77;;
31308;SDS011;17936;52.446;10.840;2023-04-07T03:11:41;17.83;;;10.93;;
31308;SDS011;17936;52.446;10.840;2023-04-07T03:14:07;18.10;;;10.77;;
31308;SDS011;17936;52.446;10.840;2023-04-07T03:16:32;21.67;;;10.68;;
31308;SDS011;17936;52.446;10.840;2023-04-07T03:18:58;16.05;;;10.48;;
31308;SDS011;17936;52.446;10.840;2023-04-07T03:21:23;18.20;;;9.95;;
31308;SDS011;17936;52.446;10.840;2023-04-07T03:23:49;16.75;;;9.80;;
31308;SDS011;17936;52.446;10.840;2023-04-07T03:26:15;18.52;;;9.73;;
31308;SDS011;17936;52.446;10.840;2023-04-07T03:28:40;19.90;;;9.88;;
31308;SDS011;17936;52.446;10.840;2023-04-07T03:31:06;16.40;;;9.68;;
31308;SDS011;17936;52.446;10.840;2023-04-07T03:33:31;19.58;;;9.65;;
31308;SDS011;17936;52.446;10.840;2023-04-07T03:35:57;16.30;;;9.70;;
31308;SDS011;17936;52.446;10.840;2023-04-07T03:38:23;16.25;;;9.23;;
31308;SDS011;17936;52.446;10.840;2023-04-07T03:40:48;15.88;;;10.10;;
31308;SDS011;17936;52.446;10.840;2023-04-07T03:43:14;17.48;;;9.80;;
31308;SDS011;17936;52.446;10.840;2023-04-07T03:45:40;17.15;;;9.68;;
31308;SDS011;17936;52.446;10.840;2023-04-07T03:48:06;13.13;;;8.23;;
31308;SDS011;17936;52.446;10.840;2023-04-07T03:50:39;15.55;;;9.35;;
31308;SDS011;17936;52.446;10.840;2023-04-07T03:53:05;16.60;;;8.95;;
31308;SDS011;17936;52.446;10.840;2023-04-07T03:55:31;14.93;;;8.45;;
31308;SDS011;17936;52.446;10.840;2023-04-07T03:57:58;16.33;;;8.95;;
31308;SDS011;17936;52.446;10.840;2023-04-07T04:00:23;17.27;;;9.30;;
31308;SDS011;17936;52.446;10.840;2023-04-07T04:02:49;16.60;;;9.07;;
31308;SDS011;17936;52.446;10.840;2023-04-07T04:05:15;13.82;;;8.50;;
31308;SDS011;17936;52.446;10.840;2023-04-07T04:07:40;15.70;;;9.13;;
31308;SDS011;17936;52.446;10.840;2023-04-07T04:10:06;17.05;;;8.90;;
31308;SDS011;17936;52.446;10.840;2023-04-07T04:12:32;17.73;;;9.32;;
31308;SDS011;17936;52.446;10.840;2023-04-07T04:14:57;14.60;;;9.02;;
31308;SDS011;17936;52.446;10.840;2023-04-07T04:17:23;14.98;;;9.40;;
31308;SDS011;17936;52.446;10.840;2023-04-07T04:19:50;25.95;;;9.50;;
31308;SDS011;17936;52.446;10.840;2023-04-07T04:22:15;14.95;;;9.38;;
31308;SDS011;17936;52.446;10.840;2023-04-07T04:24:41;16.17;;;9.60;;
31308;SDS011;17936;52.446;10.840;2023-04-07T04:27:07;15.23;;;9.30;;
31308;SDS011;17936;52.446;10.840;2023-04-07T04:29:32;15.98;;;9.23;;
31308;SDS011;17936;52.446;10.840;2023-04-07T04:31:58;14.38;;;8.73;;
31308;SDS011;17936;52.446;10.840;2023-04-07T04:34:23;15.48;;;9.00;;
31308;SDS011;17936;52.446;10.840;2023-04-07T04:36:49;14.30;;;8.15;;
31308;SDS011;17936;52.446;10.840;2023-04-07T04:39:15;12.85;;;7.60;;
31308;SDS011;17936;52.446;10.840;2023-04-07T04:41:40;12.77;;;6.97;;
31308;SDS011;17936;52.446;10.840;2023-04-07T04:44:06;14.10;;;7.63;;
31308;SDS011;17936;52.446;10.840;2023-04-07T04:46:31;15.10;;;8.38;;
31308;SDS011;17936;52.446;10.840;2023-04-07T04:48:57;15.40;;;8.23;;
31308;SDS011;17936;52.446;10.840;2023-04-07T04:51:22;11.52;;;7.50;;
31308;SDS011;17936;52.446;10.840;2023-04-07T04:53:48;15.50;;;7.65;;
31308;SDS011;17936;52.446;10.840;2023-04-07T04:56:14;14.32;;;8.35;;
31308;SDS011;17936;52.446;10.840;2023-04-07T04:58:40;12.15;;;7.78;;
31308;SDS011;17936;52.446;10.840;2023-04-07T05:01:10;11.90;;;7.07;;
31308;SDS011;17936;52.446;10.840;2023-04-07T05:03:38;13.07;;;7.80;;
31308;SDS011;17936;52.446;10.840;2023-04-07T05:06:04;14.80;;;7.63;;
31308;SDS011;17936;52.446;10.840;2023-04-07T05:08:30;16.35;;;8.85;;
31308;SDS011;17936;52.446;10.840;2023-04-07T05:10:56;12.98;;;7.50;;
31308;SDS011;17936;52.446;10.840;2023-04-07T05:13:22;11.77;;;7.70;;
31308;SDS011;17936;52.446;10.840;2023-04-07T05:15:49;14.93;;;7.85;;
31308;SDS011;17936;52.446;10.840;2023-04-07T05:18:15;17.45;;;7.75;;
31308;SDS011;17936;52.446;10.840;2023-04-07T05:20:40;13.00;;;7.40;;
31308;SDS011;17936;52.446;10.840;2023-04-07T05:23:07;11.38;;;7.57;;
31308;SDS011;17936;52.446;10.840;2023-04-07T05:25:32;11.63;;;6.65;;
31308;SDS011;17936;52.446;10.840;2023-04-07T05:27:58;11.98;;;7.28;;
31308;SDS011;17936;52.446;10.840;2023-04-07T05:30:25;10.52;;;6.57;;
31308;SDS011;17936;52.446;10.840;2023-04-07T05:32:51;14.18;;;7.50;;
31308;SDS011;17936;52.446;10.840;2023-04-07T05:35:17;12.98;;;7.10;;
31308;SDS011;17936;52.446;10.840;2023-04-07T05:37:43;13.88;;;7.90;;
31308;SDS011;17936;52.446;10.840;2023-04-07T05:40:08;13.73;;;7.00;;
31308;SDS011;17936;52.446;10.840;2023-04-07T05:42:34;12.18;;;7.40;;
31308;SDS011;17936;52.446;10.840;2023-04-07T05:45:00;11.50;;;7.00;;
31308;SDS011;17936;52.446;10.840;2023-04-07T05:47:25;11.77;;;7.00;;
31308;SDS011;17936;52.446;10.840;2023-04-07T05:49:51;14.48;;;7.30;;
31308;SDS011;17936;52.446;10.840;2023-04-07T05:52:17;14.90;;;6.88;;
31308;SDS011;17936;52.446;10.840;2023-04-07T05:54:42;11.20;;;6.72;;
31308;SDS011;17936;52.446;10.840;2023-04-07T05:57:08;13.57;;;7.22;;
31308;SDS011;17936;52.446;10.840;2023-04-07T05:59:33;14.35;;;6.88;;
31308;SDS011;17936;52.446;10.840;2023-04-07T06:01:59;12.98;;;6.82;;
31308;SDS011;17936;52.446;10.840;2023-04-07T06:04:25;13.68;;;6.45;;
31308;SDS011;17936;52.446;10.840;2023-04-07T06:06:50;13.13;;;6.55;;
31308;SDS011;17936;52.446;10.840;2023-04-07T06:09:22;13.18;;;7.32;;
31308;SDS011;17936;52.446;10.840;2023-04-07T06:11:48;12.25;;;6.53;;
31308;SDS011;17936;52.446;10.840;2023-04-07T06:14:13;11.25;;;6.40;;
31308;SDS011;17936;52.446;10.840;2023-04-07T06:16:39;12.45;;;6.65;;
31308;SDS011;17936;52.446;10.840;2023-04-07T06:19:05;12.90;;;6.55;;
31308;SDS011;17936;52.446;10.840;2023-04-07T06:21:31;11.85;;;6.15;;
31308;SDS011;17936;52.446;10.840;2023-04-07T06:23:57;14.20;;;6.65;;
31308;SDS011;17936;52.446;10.840;2023-04-07T06:26:22;12.25;;;6.20;;
31308;SDS011;17936;52.446;10.840;2023-04-07T06:28:48;12.15;;;7.15;;
31308;SDS011;17936;52.446;10.840;2023-04-07T06:31:14;10.35;;;5.75;;
31308;SDS011;17936;52.446;10.840;2023-04-07T06:33:39;11.57;;;6.07;;
31308;SDS011;17936;52.446;10.840;2023-04-07T06:36:05;10.93;;;5.88;;
31308;SDS011;17936;52.446;10.840;2023-04-07T06:38:30;17.20;;;7.47;;
31308;SDS011;17936;52.446;10.840;2023-04-07T06:40:56;11.73;;;6.60;;
31308;SDS011;17936;52.446;10.840;2023-04-07T06:43:22;13.30;;;6.22;;
31308;SDS011;17936;52.446;10.840;2023-04-07T06:45:47;11.55;;;6.45;;
31308;SDS011;17936;52.446;10.840;2023-04-07T06:48:13;10.10;;;6.30;;
31308;SDS011;17936;52.446;10.840;2023-04-07T06:50:38;12.15;;;6.28;;
31308;SDS011;17936;52.446;10.840;2023-04-07T06:53:04;12.10;;;6.22;;
31308;SDS011;17936;52.446;10.840;2023-04-07T06:55:29;10.07;;;6.80;;
31308;SDS011;17936;52.446;10.840;2023-04-07T06:57:55;12.70;;;6.75;;
31308;SDS011;17936;52.446;10.840;2023-04-07T07:00:21;12.02;;;6.55;;
31308;SDS011;17936;52.446;10.840;2023-04-07T07:02:50;11.60;;;5.72;;
31308;SDS011;17936;52.446;10.840;2023-04-07T07:05:16;12.88;;;6.07;;
31308;SDS011;17936;52.446;10.840;2023-04-07T07:07:42;11.55;;;6.38;;
31308;SDS011;17936;52.446;10.840;2023-04-07T07:10:07;12.05;;;6.82;;
31308;SDS011;17936;52.446;10.840;2023-04-07T07:12:34;16.08;;;6.60;;
31308;SDS011;17936;52.446;10.840;2023-04-07T07:15:00;13.27;;;6.30;;
31308;SDS011;17936;52.446;10.840;2023-04-07T07:17:25;14.43;;;7.05;;
31308;SDS011;17936;52.446;10.840;2023-04-07T07:19:51;12.25;;;6.60;;
31308;SDS011;17936;52.446;10.840;2023-04-07T07:22:17;12.60;;;6.32;;
31308;SDS011;17936;52.446;10.840;2023-04-07T07:24:42;14.07;;;6.57;;
31308;SDS011;17936;52.446;10.840;2023-04-07T07:27:08;12.88;;;6.45;;
31308;SDS011;17936;52.446;10.840;2023-04-07T07:29:33;13.93;;;7.15;;
31308;SDS011;17936;52.446;10.840;2023-04-07T07:31:59;18.13;;;7.65;;
31308;SDS011;17936;52.446;10.840;2023-04-07T07:34:24;12.25;;;6.47;;
31308;SDS011;17936;52.446;10.840;2023-04-07T07:36:50;10.00;;;5.45;;
31308;SDS011;17936;52.446;10.840;2023-04-07T07:39:15;16.90;;;7.10;;
31308;SDS011;17936;52.446;10.840;2023-04-07T07:41:41;13.10;;;6.78;;
31308;SDS011;17936;52.446;10.840;2023-04-07T07:44:06;11.88;;;6.45;;
31308;SDS011;17936;52.446;10.840;2023-04-07T07:46:32;13.05;;;6.60;;
31308;SDS011;17936;52.446;10.840;2023-04-07T07:48:57;13.43;;;6.38;;
31308;SDS011;17936;52.446;10.840;2023-04-07T07:51:23;10.48;;;5.60;;
31308;SDS011;17936;52.446;10.840;2023-04-07T07:53:49;12.65;;;6.47;;
31308;SDS011;17936;52.446;10.840;2023-04-07T07:56:14;11.50;;;6.80;;
31308;SDS011;17936;52.446;10.840;2023-04-07T07:58:40;10.75;;;6.47;;
31308;SDS011;17936;52.446;10.840;2023-04-07T08:01:06;15.27;;;7.20;;
31308;SDS011;17936;52.446;10.840;2023-04-07T08:03:31;14.10;;;7.22;;
31308;SDS011;17936;52.446;10.840;2023-04-07T08:05:57;13.95;;;6.72;;
31308;SDS011;17936;52.446;10.840;2023-04-07T08:08:22;11.43;;;6.03;;
31308;SDS011;17936;52.446;10.840;2023-04-07T08:10:48;13.68;;;6.78;;
31308;SDS011;17936;52.446;10.840;2023-04-07T08:13:13;11.57;;;6.22;;
31308;SDS011;17936;52.446;10.840;2023-04-07T08:15:39;12.32;;;6.85;;
31308;SDS011;17936;52.446;10.840;2023-04-07T08:18:05;11.32;;;5.47;;
31308;SDS011;17936;52.446;10.840;2023-04-07T08:20:31;14.32;;;6.20;;
31308;SDS011;17936;52.446;10.840;2023-04-07T08:22:57;12.25;;;5.57;;
31308;SDS011;17936;52.446;10.840;2023-04-07T08:25:22;16.60;;;5.68;;
31308;SDS011;17936;52.446;10.840;2023-04-07T08:27:48;13.90;;;6.10;;
31308;SDS011;17936;52.446;10.840;2023-04-07T08:30:14;12.02;;;6.20;;
31308;SDS011;17936;52.446;10.840;2023-04-07T08:32:40;13.25;;;6.22;;
31308;SDS011;17936;52.446;10.840;2023-04-07T08:35:07;10.32;;;4.93;;
31308;SDS011;17936;52.446;10.840;2023-04-07T08:37:33;10.95;;;6.03;;
31308;SDS011;17936;52.446;10.840;2023-04-07T08:40:00;14.57;;;5.88;;
31308;SDS011;17936;52.446;10.840;2023-04-07T08:42:26;11.10;;;5.60;;
31308;SDS011;17936;52.446;10.840;2023-04-07T08:44:57;11.27;;;5.93;;
31308;SDS011;17936;52.446;10.840;2023-04-07T08:47:29;13.23;;;6.55;;
31308;SDS011;17936;52.446;10.840;2023-04-07T08:49:58;8.93;;;5.15;;
31308;SDS011;17936;52.446;10.840;2023-04-07T08:52:28;11.43;;;5.75;;
31308;SDS011;17936;52.446;10.840;2023-04-07T08:54:59;12.98;;;5.80;;
31308;SDS011;17936;52.446;10.840;2023-04-07T08:57:28;8.45;;;4.97;;
31308;SDS011;17936;52.446;10.840;2023-04-07T08:59:55;9.02;;;4.80;;
31308;SDS011;17936;52.446;10.840;2023-04-07T09:02:24;12.95;;;6.03;;
31308;SDS011;17936;52.446;10.840;2023-04-07T09:04:50;7.15;;;3.63;;
31308;SDS011;17936;52.446;10.840;2023-04-07T09:07:16;8.15;;;4.68;;
31308;SDS011;17936;52.446;10.840;2023-04-07T09:09:41;9.43;;;4.88;;
31308;SDS011;17936;52.446;10.840;2023-04-07T09:12:07;10.35;;;5.35;;
31308;SDS011;17936;52.446;10.840;2023-04-07T09:14:32;9.20;;;5.03;;
31308;SDS011;17936;52.446;10.840;2023-04-07T09:16:58;9.00;;;4.93;;
31308;SDS011;17936;52.446;10.840;2023-04-07T09:19:25;9.05;;;4.88;;
31308;SDS011;17936;52.446;10.840;2023-04-07T09:21:51;11.10;;;5.53;;
31308;SDS011;17936;52.446;10.840;2023-04-07T09:24:21;9.43;;;4.57;;
31308;SDS011;17936;52.446;10.840;2023-04-07T09:26:51;9.68;;;4.75;;
31308;SDS011;17936;52.446;10.840;2023-04-07T09:29:36;10.48;;;4.65;;
31308;SDS011;17936;52.446;10.840;2023-04-07T09:32:02;10.27;;;5.20;;
31308;SDS011;17936;52.446;10.840;2023-04-07T09:34:29;8.98;;;4.53;;
31308;SDS011;17936;52.446;10.840;2023-04-07T09:36:57;11.02;;;4.30;;
31308;SDS011;17936;52.446;10.840;2023-04-07T09:39:23;11.60;;;5.03;;
31308;SDS011;17936;52.446;10.840;2023-04-07T09:41:49;7.68;;;3.92;;
31308;SDS011;17936;52.446;10.840;2023-04-07T09:44:16;8.68;;;3.72;;
31308;SDS011;17936;52.446;10.840;2023-04-07T09:46:55;10.27;;;4.30;;
31308;SDS011;17936;52.446;10.840;2023-04-07T09:49:22;8.77;;;4.00;;
31308;SDS011;17936;52.446;10.840;2023-04-07T09:51:52;9.60;;;4.07;;
31308;SDS011;17936;52.446;10.840;2023-04-07T09:54:32;7.70;;;4.63;;
31308;SDS011;17936;52.446;10.840;2023-04-07T09:57:09;6.93;;;3.85;;
31308;SDS011;17936;52.446;10.840;2023-04-07T09:59:36;7.05;;;4.28;;
31308;SDS011;17936;52.446;10.840;2023-04-07T10:02:03;6.80;;;4.05;;
31308;SDS011;17936;52.446;10.840;2023-04-07T10:04:29;7.07;;;3.33;;
31308;SDS011;17936;52.446;10.840;2023-04-07T10:06:56;7.18;;;4.07;;
31308;SDS011;17936;52.446;10.840;2023-04-07T10:09:25;7.50;;;4.18;;
31308;SDS011;17936;52.446;10.840;2023-04-07T10:11:52;9.57;;;4.60;;
31308;SDS011;17936;52.446;10.840;2023-04-07T10:14:19;10.38;;;4.10;;
31308;SDS011;17936;52.446;10.840;2023-04-07T10:16:46;8.57;;;4.05;;
31308;SDS011;17936;52.446;10.840;2023-04-07T10:19:12;9.10;;;3.95;;
31308;SDS011;17936;52.446;10.840;2023-04-07T10:21:39;10.13;;;3.78;;
31308;SDS011;17936;52.446;10.840;2023-04-07T10:26:54;5.10;;;3.58;;
31308;SDS011;17936;52.446;10.840;2023-04-07T10:29:21;6.10;;;3.10;;
31308;SDS011;17936;52.446;10.840;2023-04-07T10:31:49;4.95;;;3.25;;
31308;SDS011;17936;52.446;10.840;2023-04-07T10:34:16;7.35;;;3.53;;
31308;SDS011;17936;52.446;10.840;2023-04-07T10:39:37;8.50;;;3.60;;
31308;SDS011;17936;52.446;10.840;2023-04-07T10:42:03;8.23;;;3.70;;
31308;SDS011;17936;52.446;10.840;2023-04-07T10:47:06;8.23;;;4.20;;
31308;SDS011;17936;52.446;10.840;2023-04-07T10:49:33;7.43;;;4.03;;
31308;SDS011;17936;52.446;10.840;2023-04-07T10:54:37;8.88;;;4.00;;
31308;SDS011;17936;52.446;10.840;2023-04-07T10:59:34;9.13;;;4.28;;
31308;SDS011;17936;52.446;10.840;2023-04-07T11:04:40;8.57;;;3.72;;
31308;SDS011;17936;52.446;10.840;2023-04-07T11:07:07;7.32;;;3.83;;
31308;SDS011;17936;52.446;10.840;2023-04-07T11:09:33;10.07;;;4.00;;
31308;SDS011;17936;52.446;10.840;2023-04-07T11:11:58;6.18;;;3.67;;
31308;SDS011;17936;52.446;10.840;2023-04-07T11:14:25;7.50;;;3.85;;
31308;SDS011;17936;52.446;10.840;2023-04-07T11:16:54;8.65;;;4.00;;
31308;SDS011;17936;52.446;10.840;2023-04-07T11:19:20;8.75;;;4.20;;
31308;SDS011;17936;52.446;10.840;2023-04-07T11:21:46;7.05;;;4.20;;
31308;SDS011;17936;52.446;10.840;2023-04-07T11:24:31;7.50;;;4.07;;
31308;SDS011;17936;52.446;10.840;2023-04-07T11:26:57;5.85;;;4.00;;
31308;SDS011;17936;52.446;10.840;2023-04-07T11:29:26;8.82;;;4.25;;
31308;SDS011;17936;52.446;10.840;2023-04-07T11:31:53;7.40;;;4.00;;
31308;SDS011;17936;52.446;10.840;2023-04-07T11:34:20;5.70;;;3.38;;
31308;SDS011;17936;52.446;10.840;2023-04-07T11:36:45;6.93;;;3.30;;
31308;SDS011;17936;52.446;10.840;2023-04-07T11:39:20;7.88;;;3.97;;
31308;SDS011;17936;52.446;10.840;2023-04-07T11:41:47;10.18;;;3.83;;
31308;SDS011;17936;52.446;10.840;2023-04-07T11:44:13;9.13;;;3.80;;
31308;SDS011;17936;52.446;10.840;2023-04-07T11:46:55;7.32;;;3.78;;
31308;SDS011;17936;52.446;10.840;2023-04-07T11:49:22;6.82;;;3.72;;
31308;SDS011;17936;52.446;10.840;2023-04-07T11:51:59;12.75;;;4.55;;
31308;SDS011;17936;52.446;10.840;2023-04-07T11:54:27;11.30;;;4.40;;
31308;SDS011;17936;52.446;10.840;2023-04-07T11:57:14;7.28;;;3.83;;
31308;SDS011;17936;52.446;10.840;2023-04-07T12:00:11;7.80;;;3.97;;
31308;SDS011;17936;52.446;10.840;2023-04-07T12:02:38;6.43;;;3.65;;
31308;SDS011;17936;52.446;10.840;2023-04-07T12:05:05;7.75;;;3.60;;
31308;SDS011;17936;52.446;10.840;2023-04-07T12:07:31;10.38;;;3.58;;
31308;SDS011;17936;52.446;10.840;2023-04-07T12:09:57;7.38;;;3.55;;
31308;SDS011;17936;52.446;10.840;2023-04-07T12:12:26;8.75;;;4.30;;
31308;SDS011;17936;52.446;10.840;2023-04-07T12:14:52;10.57;;;3.88;;
31308;SDS011;17936;52.446;10.840;2023-04-07T12:17:23;8.18;;;3.88;;
31308;SDS011;17936;52.446;10.840;2023-04-07T12:19:50;10.07;;;3.70;;
31308;SDS011;17936;52.446;10.840;2023-04-07T12:22:16;8.25;;;3.92;;
31308;SDS011;17936;52.446;10.840;2023-04-07T12:24:42;7.10;;;3.83;;
31308;SDS011;17936;52.446;10.840;2023-04-07T12:27:07;15.50;;;4.70;;
31308;SDS011;17936;52.446;10.840;2023-04-07T12:29:33;9.23;;;4.00;;
31308;SDS011;17936;52.446;10.840;2023-04-07T12:32:00;6.60;;;3.40;;
31308;SDS011;17936;52.446;10.840;2023-04-07T12:34:26;9.50;;;4.05;;
31308;SDS011;17936;52.446;10.840;2023-04-07T12:36:52;5.43;;;2.92;;
31308;SDS011;17936;52.446;10.840;2023-04-07T12:39:17;7.05;;;3.42;;
31308;SDS011;17936;52.446;10.840;2023-04-07T12:41:43;5.38;;;3.30;;
31308;SDS011;17936;52.446;10.840;2023-04-07T12:44:09;7.70;;;3.45;;
31308;SDS011;17936;52.446;10.840;2023-04-07T12:46:35;10.93;;;3.97;;
31308;SDS011;17936;52.446;10.840;2023-04-07T12:49:01;8.90;;;4.40;;
31308;SDS011;17936;52.446;10.840;2023-04-07T12:51:27;7.63;;;3.85;;
31308;SDS011;17936;52.446;10.840;2023-04-07T12:53:53;7.07;;;3.83;;
31308;SDS011;17936;52.446;10.840;2023-04-07T12:56:18;7.97;;;3.47;;
31308;SDS011;17936;52.446;10.840;2023-04-07T12:58:46;7.60;;;3.95;;
31308;SDS011;17936;52.446;10.840;2023-04-07T13:01:12;8.90;;;4.25;;
31308;SDS011;17936;52.446;10.840;2023-04-07T13:03:38;10.80;;;4.18;;
31308;SDS011;17936;52.446;10.840;2023-04-07T13:06:04;10.63;;;4.30;;
31308;SDS011;17936;52.446;10.840;2023-04-07T13:08:29;7.75;;;4.03;;
31308;SDS011;17936;52.446;10.840;2023-04-07T13:10:55;11.18;;;4.30;;
31308;SDS011;17936;52.446;10.840;2023-04-07T13:13:21;6.45;;;3.80;;
31308;SDS011;17936;52.446;10.840;2023-04-07T13:15:47;6.28;;;3.63;;
31308;SDS011;17936;52.446;10.840;2023-04-07T13:18:12;6.28;;;3.75;;
31308;SDS011;17936;52.446;10.840;2023-04-07T13:20:38;6.65;;;3.63;;
31308;SDS011;17936;52.446;10.840;2023-04-07T13:23:03;10.65;;;4.22;;
31308;SDS011;17936;52.446;10.840;2023-04-07T13:25:30;9.23;;;3.92;;
31308;SDS011;17936;52.446;10.840;2023-04-07T13:27:56;6.35;;;3.42;;
31308;SDS011;17936;52.446;10.840;2023-04-07T13:30:23;6.93;;;4.25;;
31308;SDS011;17936;52.446;10.840;2023-04-07T13:32:49;5.90;;;3.42;;
31308;SDS011;17936;52.446;10.840;2023-04-07T13:35:15;4.93;;;3.28;;
31308;SDS011;17936;52.446;10.840;2023-04-07T13:37:41;9.40;;;4.13;;
31308;SDS011;17936;52.446;10.840;2023-04-07T13:40:08;8.20;;;4.10;;
31308;SDS011;17936;52.446;10.840;2023-04-07T13:42:34;7.18;;;3.63;;
31308;SDS011;17936;52.446;10.840;2023-04-07T13:45:00;6.88;;;3.90;;
31308;SDS011;17936;52.446;10.840;2023-04-07T13:47:26;8.93;;;4.10;;
31308;SDS011;17936;52.446;10.840;2023-04-07T13:49:53;6.13;;;3.60;;
31308;SDS011;17936;52.446;10.840;2023-04-07T13:52:19;7.47;;;3.50;;
31308;SDS011;17936;52.446;10.840;2023-04-07T13:54:46;5.88;;;3.63;;
31308;SDS011;17936;52.446;10.840;2023-04-07T13:57:11;5.57;;;3.35;;
31308;SDS011;17936;52.446;10.840;2023-04-07T13:59:43;7.00;;;3.37;;
31308;SDS011;17936;52.446;10.840;2023-04-07T14:02:08;7.32;;;3.80;;
31308;SDS011;17936;52.446;10.840;2023-04-07T14:04:34;6.43;;;3.65;;
31308;SDS011;17936;52.446;10.840;2023-04-07T14:06:59;6.65;;;3.35;;
31308;SDS011;17936;52.446;10.840;2023-04-07T14:09:25;6.35;;;3.20;;
31308;SDS011;17936;52.446;10.840;2023-04-07T14:11:50;8.93;;;4.15;;
31308;SDS011;17936;52.446;10.840;2023-04-07T14:14:16;7.78;;;3.72;;
31308;SDS011;17936;52.446;10.840;2023-04-07T14:16:42;5.63;;;3.50;;
31308;SDS011;17936;52.446;10.840;2023-04-07T14:19:08;6.32;;;3.72;;
31308;SDS011;17936;52.446;10.840;2023-04-07T14:21:33;7.80;;;3.40;;
31308;SDS011;17936;52.446;10.840;2023-04-07T14:23:59;5.15;;;3.33;;
31308;SDS011;17936;52.446;10.840;2023-04-07T14:26:25;7.95;;;3.70;;
31308;SDS011;17936;52.446;10.840;2023-04-07T14:28:51;5.90;;;3.20;;
31308;SDS011;17936;52.446;10.840;2023-04-07T14:31:16;5.55;;;3.30;;
31308;SDS011;17936;52.446;10.840;2023-04-07T14:33:42;6.30;;;3.42;;
31308;SDS011;17936;52.446;10.840;2023-04-07T14:36:08;9.50;;;4.05;;
31308;SDS011;17936;52.446;10.840;2023-04-07T14:38:34;5.30;;;3.38;;
31308;SDS011;17936;52.446;10.840;2023-04-07T14:41:00;6.20;;;3.33;;
31308;SDS011;17936;52.446;10.840;2023-04-07T14:43:27;6.68;;;3.63;;